Time;durP1;ratioP1;P1;durP2;ratioP2;P2;SDS_P1;SDS_P2;PMS_P1;PMS_P2;Temp;Humidity;BMP_temperature;BMP_pressure;BME280_temperature;BME280_humidity;BME280_pressure;Samples;Min_cycle;Max_cycle;Signal;HPM_P1;HPM_P2
2023/02/20 00:02:15;;;;;;;11.98;6.10;;;5.80;99.90;;;;;;4999525;28;20069;-75
2023/02/20 00:04:41;;;;;;;11.30;6.80;;;5.90;99.90;;;;;;5044665;28;20045;-75
2023/02/20 00:07:07;;;;;;;10.55;6.28;;;5.90;99.90;;;;;;4996381;28;20106;-75
2023/02/20 00:09:32;;;;;;;10.18;6.28;;;5.90;99.90;;;;;;5002948;28;20152;-75
2023/02/20 00:11:58;;;;;;;12.88;6.57;;;6.00;99.90;;;;;;5020873;28;20061;-73
2023/02/20 00:14:24;;;;;;;10.60;6.30;;;6.00;99.90;;;;;;5029491;28;20467;-75
2023/02/20 00:16:49;;;;;;;12.65;6.50;;;6.00;99.90;;;;;;5021531;28;20053;-75
2023/02/20 00:19:15;;;;;;;12.25;6.57;;;6.00;99.90;;;;;;4976100;28;20041;-75
2023/02/20 00:21:47;;;;;;;11.75;6.82;;;6.00;99.90;;;;;;5008362;28;20053;-75
2023/02/20 00:24:14;;;;;;;11.27;6.22;;;6.00;99.90;;;;;;5012376;28;20343;-75
2023/02/20 00:26:48;;;;;;;13.43;6.88;;;6.00;99.90;;;;;;4988952;28;20052;-76
2023/02/20 00:29:16;;;;;;;12.95;7.28;;;6.00;99.90;;;;;;4990093;28;20049;-74
2023/02/20 00:31:43;;;;;;;10.35;6.75;;;6.10;99.90;;;;;;5004632;28;20448;-75
2023/02/20 00:34:10;;;;;;;11.60;7.30;;;6.10;99.90;;;;;;5021338;28;20643;-75
2023/02/20 00:36:36;;;;;;;11.32;6.85;;;6.10;99.90;;;;;;4988540;28;20115;-74
2023/02/20 00:39:01;;;;;;;12.10;7.05;;;6.00;99.90;;;;;;5010297;28;20046;-75
2023/02/20 00:41:29;;;;;;;11.07;6.57;;;6.10;99.90;;;;;;5017765;28;20053;-74
2023/02/20 00:43:54;;;;;;;12.82;6.93;;;6.00;99.90;;;;;;5021103;28;20080;-75
2023/02/20 00:46:20;;;;;;;10.52;6.78;;;6.10;99.90;;;;;;5024812;28;20514;-75
2023/02/20 00:48:46;;;;;;;14.38;6.47;;;6.10;99.90;;;;;;5007516;28;20381;-75
2023/02/20 00:51:12;;;;;;;16.33;6.57;;;6.10;99.90;;;;;;5010604;28;20071;-75
2023/02/20 00:53:37;;;;;;;11.25;6.70;;;6.00;99.90;;;;;;5010295;28;20046;-74
2023/02/20 00:56:03;;;;;;;13.15;6.80;;;6.10;99.90;;;;;;5023539;28;20053;-75
2023/02/20 00:58:29;;;;;;;12.80;6.70;;;6.00;99.90;;;;;;5029682;28;20065;-73
2023/02/20 01:00:55;;;;;;;11.90;7.63;;;6.00;99.90;;;;;;4994484;28;20107;-75
2023/02/20 01:03:22;;;;;;;10.68;6.80;;;6.10;99.90;;;;;;5031909;28;20065;-75
2023/02/20 01:05:48;;;;;;;11.07;6.50;;;6.10;99.90;;;;;;5009414;28;20056;-75
2023/02/20 01:08:13;;;;;;;10.10;6.35;;;6.10;99.90;;;;;;5032655;28;20041;-75
2023/02/20 01:10:39;;;;;;;9.63;5.88;;;6.10;99.90;;;;;;5027026;28;20049;-75
2023/02/20 01:13:05;;;;;;;11.77;6.72;;;6.20;99.90;;;;;;5023132;28;20041;-75
2023/02/20 01:15:30;;;;;;;11.80;7.25;;;6.20;99.90;;;;;;5028490;28;20077;-76
2023/02/20 01:17:56;;;;;;;9.73;6.68;;;6.20;99.90;;;;;;4989423;28;20132;-75
2023/02/20 01:20:22;;;;;;;10.85;6.68;;;6.20;99.90;;;;;;5012231;28;20446;-75
2023/02/20 01:22:48;;;;;;;13.07;7.68;;;6.20;99.90;;;;;;5041756;28;20049;-75
2023/02/20 01:25:15;;;;;;;11.80;7.68;;;6.20;99.90;;;;;;4996911;28;20391;-75
2023/02/20 01:27:40;;;;;;;11.85;7.28;;;6.30;99.90;;;;;;5027626;28;20057;-75
2023/02/20 01:30:07;;;;;;;10.55;7.05;;;6.20;99.90;;;;;;5014850;28;20041;-75
2023/02/20 01:32:33;;;;;;;12.23;7.15;;;6.20;99.90;;;;;;4999841;28;20049;-76
2023/02/20 01:35:00;;;;;;;10.50;7.35;;;6.30;99.90;;;;;;5008625;28;20454;-75
2023/02/20 01:37:25;;;;;;;10.80;6.85;;;6.40;99.90;;;;;;5022030;28;20054;-75
2023/02/20 01:39:51;;;;;;;12.52;7.05;;;6.30;99.90;;;;;;5017937;28;20124;-75
2023/02/20 01:42:21;;;;;;;11.50;6.70;;;6.30;99.90;;;;;;5031195;28;20045;-75
2023/02/20 01:44:47;;;;;;;11.52;7.05;;;6.30;99.90;;;;;;5016595;28;20057;-75
2023/02/20 01:47:19;;;;;;;10.55;6.40;;;6.30;99.90;;;;;;5022690;28;20060;-74
2023/02/20 01:49:45;;;;;;;10.48;6.38;;;6.30;99.90;;;;;;5021441;28;20128;-75
2023/02/20 01:52:19;;;;;;;11.82;6.93;;;6.40;99.90;;;;;;5019949;28;20149;-75
2023/02/20 01:54:47;;;;;;;10.70;6.80;;;6.30;99.90;;;;;;5009993;28;20477;-75
2023/02/20 01:57:17;;;;;;;11.57;7.03;;;6.30;99.90;;;;;;5009115;28;20069;-75
2023/02/20 01:59:43;;;;;;;11.70;6.53;;;6.30;99.90;;;;;;5027798;28;20791;-75
2023/02/20 02:02:09;;;;;;;10.50;6.97;;;6.40;99.90;;;;;;5019950;28;20050;-75
2023/02/20 02:04:35;;;;;;;10.32;7.07;;;6.30;99.90;;;;;;5010216;28;20351;-75
2023/02/20 02:07:01;;;;;;;10.85;7.03;;;6.40;99.90;;;;;;5006702;28;20049;-75
2023/02/20 02:09:43;;;;;;;9.68;6.70;;;6.40;99.90;;;;;;5023310;28;20107;-75
2023/02/20 02:12:09;;;;;;;11.65;7.88;;;6.40;99.90;;;;;;5013313;28;20137;-75
2023/02/20 02:14:35;;;;;;;10.80;6.97;;;6.40;99.90;;;;;;5007629;28;20041;-75
2023/02/20 02:17:10;;;;;;;10.98;8.02;;;6.40;99.90;;;;;;5006752;28;20814;-75
2023/02/20 02:19:46;;;;;;;11.63;7.57;;;6.40;99.90;;;;;;5025450;28;20046;-75
2023/02/20 02:22:53;;;;;;;12.85;7.60;;;6.40;99.90;;;;;;5024414;28;20060;-75
2023/02/20 02:25:47;;;;;;;10.32;7.22;;;6.30;99.90;;;;;;5021856;28;20048;-75
2023/02/20 02:28:40;;;;;;;9.45;6.78;;;6.30;99.90;;;;;;5012910;28;20057;-74
2023/02/20 02:31:29;;;;;;;10.25;6.43;;;6.30;99.90;;;;;;5017254;28;20041;-75
2023/02/20 02:34:36;;;;;;;10.20;6.82;;;6.30;99.90;;;;;;5016905;28;20041;-75
2023/02/20 02:37:05;;;;;;;9.75;6.22;;;6.30;99.90;;;;;;5022634;28;20631;-76
2023/02/20 02:39:55;;;;;;;9.60;6.53;;;6.30;99.90;;;;;;5022864;28;20215;-75
2023/02/20 02:42:37;;;;;;;9.75;6.18;;;6.30;99.90;;;;;;5025650;28;20060;-75
2023/02/20 02:45:26;;;;;;;9.10;6.35;;;6.40;99.90;;;;;;5015138;28;20140;-77
2023/02/20 02:48:13;;;;;;;8.32;5.80;;;6.40;99.90;;;;;;5020121;28;20049;-75
2023/02/20 02:50:39;;;;;;;9.20;5.80;;;6.30;99.90;;;;;;5020405;28;20057;-75
2023/02/20 02:53:07;;;;;;;10.02;6.03;;;6.30;99.90;;;;;;5006598;28;20508;-75
2023/02/20 02:55:32;;;;;;;9.07;6.30;;;6.30;99.90;;;;;;5022131;28;20046;-75
2023/02/20 02:57:59;;;;;;;12.93;7.82;;;6.30;99.90;;;;;;5039146;28;20520;-76
2023/02/20 03:00:26;;;;;;;8.85;6.30;;;6.30;99.90;;;;;;5017480;28;20167;-75
2023/02/20 03:02:57;;;;;;;9.40;6.97;;;6.30;99.90;;;;;;5013027;28;20045;-76
2023/02/20 03:05:25;;;;;;;11.13;6.50;;;6.40;99.90;;;;;;5021101;28;20037;-75
2023/02/20 03:07:53;;;;;;;8.95;6.40;;;6.40;99.90;;;;;;5006123;28;20041;-75
2023/02/20 03:10:30;;;;;;;9.10;6.60;;;6.40;99.90;;;;;;5005538;28;20037;-74
2023/02/20 03:12:58;;;;;;;10.55;7.70;;;6.40;99.90;;;;;;5020296;28;20128;-75
2023/02/20 03:15:35;;;;;;;;;;;6.40;99.90;;;;;;4997987;28;20639;-75
2023/02/20 03:18:11;;;;;;;10.98;7.28;;;6.40;99.90;;;;;;5029914;28;19913;-76
2023/02/20 03:20:40;;;;;;;10.65;7.32;;;6.30;99.90;;;;;;5027783;28;20409;-75
2023/02/20 03:23:05;;;;;;;10.55;7.65;;;6.30;99.90;;;;;;5017389;28;20049;-75
2023/02/20 03:25:40;;;;;;;10.80;7.00;;;6.40;99.90;;;;;;5011820;28;20049;-74
2023/02/20 03:28:07;;;;;;;10.85;7.07;;;6.40;99.90;;;;;;5003090;28;20406;-75
2023/02/20 03:30:40;;;;;;;11.05;7.88;;;6.40;99.90;;;;;;5009205;28;20048;-75
2023/02/20 03:44:35;;;;;;;11.68;8.50;;;6.40;99.90;;;;;;5010360;28;20042;-76
2023/02/20 03:47:01;;;;;;;13.15;8.93;;;6.40;99.90;;;;;;5025432;28;20393;-75
2023/02/20 03:49:31;;;;;;;14.52;9.05;;;6.50;99.90;;;;;;5011290;28;20046;-75
2023/02/20 03:51:56;;;;;;;12.85;9.38;;;6.40;99.90;;;;;;5003917;28;20132;-75
2023/02/20 03:54:22;;;;;;;13.57;9.85;;;6.50;99.90;;;;;;5005181;28;20128;-75
2023/02/20 03:56:51;;;;;;;15.07;9.57;;;6.50;99.90;;;;;;5026005;28;20056;-75
2023/02/20 03:59:22;;;;;;;13.15;9.15;;;6.40;99.90;;;;;;5006681;28;20037;-75
2023/02/20 04:01:50;;;;;;;18.35;11.52;;;6.50;99.90;;;;;;5022038;28;20045;-75
2023/02/20 04:04:19;;;;;;;14.57;11.00;;;6.50;99.90;;;;;;5020689;28;20060;-75
2023/02/20 04:06:46;;;;;;;16.90;11.70;;;6.50;99.90;;;;;;5012662;28;20292;-75
2023/02/20 04:09:14;;;;;;;16.52;12.07;;;6.50;99.90;;;;;;4999380;28;20062;-75
2023/02/20 04:11:41;;;;;;;;;;;6.50;99.90;;;;;;5000390;28;20119;-75
2023/02/20 04:14:07;;;;;;;16.50;11.38;;;6.50;99.90;;;;;;5046210;28;19920;-75
2023/02/20 04:16:34;;;;;;;18.80;12.75;;;6.50;99.90;;;;;;5024021;28;20041;-75
2023/02/20 04:19:00;;;;;;;16.03;11.83;;;6.50;99.90;;;;;;4990506;28;20073;-75
2023/02/20 04:21:31;;;;;;;15.45;11.30;;;6.50;99.90;;;;;;5001854;28;20045;-75
2023/02/20 04:24:12;;;;;;;15.45;11.55;;;6.50;99.90;;;;;;5013315;28;20143;-75
2023/02/20 04:26:37;;;;;;;16.45;10.95;;;6.40;99.90;;;;;;4977082;28;20042;-74
2023/02/20 04:29:03;;;;;;;16.73;12.60;;;6.50;99.90;;;;;;5028366;28;20068;-75
2023/02/20 04:31:29;;;;;;;18.83;13.18;;;6.50;99.90;;;;;;4996023;28;20160;-75
2023/02/20 04:33:55;;;;;;;18.73;12.93;;;6.40;99.90;;;;;;5008845;28;20936;-75
2023/02/20 04:36:21;;;;;;;20.67;13.15;;;6.50;99.90;;;;;;5014562;28;20049;-75
2023/02/20 04:38:47;;;;;;;17.25;12.52;;;6.50;99.90;;;;;;5032237;28;20130;-75
2023/02/20 04:41:12;;;;;;;17.25;12.45;;;6.50;99.90;;;;;;5028621;28;20053;-75
2023/02/20 04:43:38;;;;;;;19.52;14.20;;;6.50;99.90;;;;;;5008662;28;20049;-76
2023/02/20 04:46:04;;;;;;;19.25;12.65;;;6.50;99.90;;;;;;5025242;28;20049;-75
2023/02/20 04:48:30;;;;;;;18.77;12.95;;;6.50;99.90;;;;;;5027711;28;20059;-75
2023/02/20 04:50:55;;;;;;;18.05;13.65;;;6.50;99.90;;;;;;5023221;28;20128;-75
2023/02/20 04:53:22;;;;;;;21.42;14.23;;;6.50;99.90;;;;;;5040356;28;20045;-75
2023/02/20 04:55:48;;;;;;;21.00;13.45;;;6.50;99.90;;;;;;5006707;28;20037;-76
2023/02/20 04:58:14;;;;;;;17.90;13.27;;;6.50;99.90;;;;;;5039954;28;20052;-76
2023/02/20 05:00:40;;;;;;;20.05;12.80;;;6.50;99.90;;;;;;5013015;28;20041;-76
2023/02/20 05:03:05;;;;;;;21.25;13.73;;;6.50;99.90;;;;;;5031648;28;20500;-75
2023/02/20 05:05:31;;;;;;;20.65;13.63;;;6.50;99.90;;;;;;5000681;28;20258;-75
2023/02/20 05:07:59;;;;;;;19.40;12.65;;;6.50;99.90;;;;;;4977666;28;20477;-75
2023/02/20 05:10:25;;;;;;;19.02;13.32;;;6.50;99.90;;;;;;5000063;28;20038;-75
2023/02/20 05:12:51;;;;;;;18.55;12.68;;;6.60;99.90;;;;;;5008659;28;20042;-75
2023/02/20 05:15:19;;;;;;;18.98;13.15;;;6.60;99.90;;;;;;5011471;28;20050;-76
2023/02/20 05:17:46;;;;;;;19.88;12.55;;;6.60;99.90;;;;;;5006236;28;20184;-73
2023/02/20 05:20:16;;;;;;;19.40;13.98;;;6.60;99.90;;;;;;5030553;28;20379;-73
2023/02/20 05:22:41;;;;;;;18.52;11.13;;;6.60;99.90;;;;;;5022410;28;20072;-73
2023/02/20 05:25:09;;;;;;;20.30;11.82;;;6.60;99.90;;;;;;5006467;28;20459;-73
2023/02/20 05:27:36;;;;;;;20.17;12.13;;;6.60;99.90;;;;;;5013331;28;20498;-73
2023/02/20 05:30:02;;;;;;;18.97;12.27;;;6.60;99.90;;;;;;5002713;28;20046;-73
2023/02/20 05:32:29;;;;;;;19.88;11.30;;;6.60;99.90;;;;;;5025210;28;20060;-74
2023/02/20 05:34:55;;;;;;;19.00;10.63;;;6.60;99.90;;;;;;5002870;28;20056;-73
2023/02/20 05:37:22;;;;;;;18.65;10.55;;;6.60;99.90;;;;;;5002168;28;20045;-73
2023/02/20 05:39:47;;;;;;;16.75;10.23;;;6.60;99.90;;;;;;4986933;28;20041;-74
2023/02/20 05:42:13;;;;;;;15.18;10.35;;;6.60;99.90;;;;;;4997777;28;20052;-73
2023/02/20 05:44:39;;;;;;;17.85;10.98;;;6.60;99.90;;;;;;5031916;28;20049;-74
2023/02/20 05:47:06;;;;;;;18.85;11.57;;;6.60;99.90;;;;;;5046261;28;20045;-74
2023/02/20 05:49:33;;;;;;;17.27;10.25;;;6.60;99.90;;;;;;5032235;28;20053;-74
2023/02/20 05:52:00;;;;;;;15.40;9.80;;;6.60;99.90;;;;;;5008087;28;20076;-73
2023/02/20 05:54:26;;;;;;;20.75;10.50;;;6.60;99.90;;;;;;5003652;28;20056;-74
2023/02/20 05:56:51;;;;;;;18.02;10.07;;;6.60;99.90;;;;;;5002834;28;20049;-74
2023/02/20 05:59:19;;;;;;;16.38;9.85;;;6.60;99.90;;;;;;5005070;28;20792;-73
2023/02/20 06:01:45;;;;;;;21.50;10.05;;;6.60;99.90;;;;;;5017955;28;20136;-73
2023/02/20 06:04:11;;;;;;;18.58;9.63;;;6.70;99.90;;;;;;5036736;28;21136;-73
2023/02/20 06:06:40;;;;;;;17.60;10.32;;;6.70;99.90;;;;;;5021923;28;20658;-74
2023/02/20 06:09:07;;;;;;;15.50;9.20;;;6.70;99.90;;;;;;4969471;28;20128;-74
2023/02/20 06:11:33;;;;;;;16.25;10.90;;;6.70;99.90;;;;;;4988517;28;20053;-73
2023/02/20 06:13:59;;;;;;;16.55;9.95;;;6.70;99.90;;;;;;5024446;28;20475;-73
2023/02/20 06:16:26;;;;;;;16.05;9.75;;;6.70;99.90;;;;;;5022030;28;20045;-73
2023/02/20 06:18:52;;;;;;;18.38;9.80;;;6.70;99.90;;;;;;5014925;28;20050;-73
2023/02/20 06:21:19;;;;;;;16.95;9.77;;;6.60;99.90;;;;;;5002145;28;20052;-73
2023/02/20 06:23:46;;;;;;;15.90;9.40;;;6.60;99.90;;;;;;5005910;28;20052;-73
2023/02/20 06:26:12;;;;;;;16.45;9.50;;;6.60;99.90;;;;;;5020259;28;20471;-73
2023/02/20 06:28:38;;;;;;;16.45;9.70;;;6.60;99.90;;;;;;4990795;28;20050;-73
2023/02/20 06:31:05;;;;;;;18.67;9.50;;;6.70;99.90;;;;;;5028617;28;20044;-74
2023/02/20 06:33:31;;;;;;;13.25;8.90;;;6.60;99.90;;;;;;5014227;28;20046;-74
2023/02/20 06:35:56;;;;;;;16.35;9.30;;;6.60;99.90;;;;;;5013794;28;20056;-72
2023/02/20 06:38:22;;;;;;;15.57;9.05;;;6.60;99.90;;;;;;5000991;28;20160;-72
2023/02/20 06:40:48;;;;;;;16.38;9.43;;;6.60;99.90;;;;;;5020713;28;20098;-72
2023/02/20 06:43:14;;;;;;;15.43;8.95;;;6.60;99.90;;;;;;5004017;28;20049;-73
2023/02/20 06:45:40;;;;;;;16.38;9.43;;;6.60;99.90;;;;;;5015225;28;20111;-74
2023/02/20 06:48:06;;;;;;;13.10;8.38;;;6.60;99.90;;;;;;5010830;28;20053;-73
2023/02/20 06:50:31;;;;;;;15.32;8.45;;;6.60;99.90;;;;;;5017587;28;20076;-73
2023/02/20 06:52:58;;;;;;;15.75;8.43;;;6.70;99.90;;;;;;5018408;28;20069;-74
2023/02/20 06:55:24;;;;;;;13.23;9.00;;;6.60;99.90;;;;;;4978753;28;20042;-73
2023/02/20 06:57:50;;;;;;;13.23;8.10;;;6.60;99.90;;;;;;5014619;28;20435;-73
2023/02/20 07:00:16;;;;;;;18.92;9.32;;;6.60;99.90;;;;;;4983702;28;20464;-73
2023/02/20 07:02:42;;;;;;;16.83;9.10;;;6.70;99.90;;;;;;5006232;28;20057;-73
2023/02/20 07:05:09;;;;;;;18.27;8.70;;;6.70;99.90;;;;;;5024079;28;20115;-74
2023/02/20 07:07:35;;;;;;;15.10;8.52;;;6.70;99.90;;;;;;5011201;28;20046;-73
2023/02/20 07:10:01;;;;;;;17.25;8.55;;;6.80;99.90;;;;;;4987507;28;20124;-73
2023/02/20 07:12:36;;;;;;;14.00;8.15;;;6.80;99.90;;;;;;5011037;28;20079;-73
2023/02/20 07:15:03;;;;;;;17.30;8.63;;;6.80;99.90;;;;;;5030033;28;20122;-73
2023/02/20 07:17:29;;;;;;;16.23;7.93;;;6.80;99.90;;;;;;4998832;28;20045;-74
2023/02/20 07:19:55;;;;;;;16.13;7.85;;;6.80;99.90;;;;;;5033901;28;20378;-74
2023/02/20 07:22:20;;;;;;;15.48;8.30;;;6.90;99.90;;;;;;5024544;28;20479;-73
2023/02/20 07:24:50;;;;;;;15.13;8.05;;;6.90;99.90;;;;;;5011573;28;20394;-73
2023/02/20 07:27:16;;;;;;;15.20;7.60;;;6.90;99.90;;;;;;5006987;28;20129;-74
2023/02/20 07:29:47;;;;;;;17.15;8.48;;;6.90;99.90;;;;;;5029565;28;20132;-73
2023/02/20 07:32:13;;;;;;;19.52;9.63;;;7.00;99.90;;;;;;5024336;28;20048;-73
2023/02/20 07:34:39;;;;;;;14.57;8.35;;;7.00;99.90;;;;;;5001730;28;20052;-74
2023/02/20 07:37:05;;;;;;;13.50;7.13;;;7.10;99.90;;;;;;5012933;28;20052;-73
2023/02/20 07:39:31;;;;;;;15.18;8.10;;;7.10;99.90;;;;;;5026484;28;20042;-73
2023/02/20 07:41:56;;;;;;;16.77;7.47;;;7.10;99.90;;;;;;5005883;28;20659;-73
2023/02/20 07:44:23;;;;;;;15.48;7.95;;;7.20;99.90;;;;;;5009607;28;20525;-73
2023/02/20 07:46:49;;;;;;;12.10;7.07;;;7.20;99.90;;;;;;5021704;28;20049;-74
2023/02/20 07:49:14;;;;;;;12.75;7.35;;;7.20;99.90;;;;;;4984254;28;20045;-73
2023/02/20 07:51:40;;;;;;;17.75;7.63;;;7.20;99.90;;;;;;5005213;28;20116;-73
2023/02/20 07:54:06;;;;;;;13.95;7.00;;;7.30;99.90;;;;;;5025462;28;20100;-74
2023/02/20 07:56:31;;;;;;;12.57;6.97;;;7.30;99.90;;;;;;5004565;28;20057;-73
2023/02/20 07:58:57;;;;;;;14.85;6.82;;;7.30;99.90;;;;;;5026202;28;20046;-71
2023/02/20 08:01:23;;;;;;;13.05;6.35;;;7.40;99.90;;;;;;5034122;28;20049;-74
2023/02/20 08:03:49;;;;;;;10.70;6.85;;;7.40;99.90;;;;;;5034471;28;20436;-72
2023/02/20 08:06:16;;;;;;;10.50;5.63;;;7.40;99.90;;;;;;4995184;28;20042;-74
2023/02/20 08:08:45;;;;;;;11.07;6.57;;;7.50;99.90;;;;;;5041986;28;20347;-73
2023/02/20 08:11:11;;;;;;;9.70;5.57;;;7.50;99.90;;;;;;5012968;28;20060;-73
2023/02/20 08:13:37;;;;;;;16.95;5.85;;;7.60;99.90;;;;;;5032233;28;20045;-73
2023/02/20 08:16:03;;;;;;;11.93;5.95;;;7.70;99.90;;;;;;5016022;28;20560;-74
2023/02/20 08:18:28;;;;;;;10.20;5.75;;;7.70;99.90;;;;;;5048378;28;20045;-73
2023/02/20 08:20:54;;;;;;;9.40;4.97;;;7.80;99.90;;;;;;5018079;28;20127;-74
2023/02/20 08:23:21;;;;;;;9.35;4.97;;;7.90;99.90;;;;;;5026707;28;20076;-74
2023/02/20 08:25:47;;;;;;;10.23;5.45;;;8.00;99.90;;;;;;5021512;28;20088;-74
2023/02/20 08:28:13;;;;;;;14.18;5.63;;;8.00;99.90;;;;;;5008194;28;20742;-74
2023/02/20 08:30:39;;;;;;;9.85;5.20;;;8.00;99.90;;;;;;5043163;28;20114;-74
2023/02/20 08:33:05;;;;;;;10.52;5.03;;;8.10;99.90;;;;;;5030371;28;20045;-74
2023/02/20 08:35:34;;;;;;;11.35;4.97;;;8.10;99.90;;;;;;5023129;28;20660;-74
2023/02/20 08:38:04;;;;;;;8.07;4.40;;;8.10;99.90;;;;;;5023947;28;20046;-74
2023/02/20 08:40:30;;;;;;;8.48;4.40;;;8.20;99.90;;;;;;5000664;28;20343;-74
2023/02/20 08:42:55;;;;;;;9.68;4.82;;;8.20;99.90;;;;;;5002432;28;20160;-75
2023/02/20 08:45:21;;;;;;;7.70;4.40;;;8.20;99.90;;;;;;5026336;28;20049;-73
2023/02/20 08:47:47;;;;;;;12.35;5.35;;;8.20;99.90;;;;;;4999651;28;20104;-73
2023/02/20 08:50:14;;;;;;;12.90;4.60;;;8.30;99.90;;;;;;5014294;28;20064;-74
2023/02/20 08:52:42;;;;;;;11.75;4.85;;;8.30;99.90;;;;;;4988042;28;20072;-74
2023/02/20 08:55:08;;;;;;;10.18;5.05;;;8.30;99.90;;;;;;5019565;28;20070;-72
2023/02/20 08:57:34;;;;;;;12.68;5.88;;;8.40;99.90;;;;;;5024581;28;20092;-72
2023/02/20 08:59:59;;;;;;;13.32;6.70;;;8.40;99.90;;;;;;5014332;28;20046;-73
2023/02/20 09:02:27;;;;;;;8.07;4.68;;;8.50;99.90;;;;;;5024121;28;20385;-73
2023/02/20 09:04:54;;;;;;;11.65;4.50;;;8.50;99.90;;;;;;5042685;28;20555;-73
2023/02/20 09:07:19;;;;;;;10.82;4.82;;;8.60;99.90;;;;;;5026856;28;20041;-75
2023/02/20 09:09:47;;;;;;;9.02;4.82;;;8.60;99.90;;;;;;5027134;28;20041;-72
2023/02/20 09:12:12;;;;;;;10.20;4.40;;;8.60;99.90;;;;;;5009235;28;20425;-73
2023/02/20 09:14:38;;;;;;;11.10;4.57;;;8.60;99.90;;;;;;5000741;28;20042;-73
2023/02/20 09:17:04;;;;;;;11.18;4.35;;;8.60;99.90;;;;;;4985986;28;20096;-73
2023/02/20 09:19:30;;;;;;;10.57;4.35;;;8.70;99.90;;;;;;5020040;28;20478;-73
2023/02/20 09:21:56;;;;;;;9.98;4.57;;;8.70;99.90;;;;;;4987624;28;20636;-75
2023/02/20 09:24:22;;;;;;;27.67;7.07;;;8.80;99.90;;;;;;5010650;28;20089;-74
2023/02/20 09:26:47;;;;;;;9.68;5.45;;;8.90;99.90;;;;;;5005238;28;20049;-75
2023/02/20 09:29:13;;;;;;;10.32;5.40;;;8.90;99.90;;;;;;5001919;28;20076;-73
2023/02/20 09:31:39;;;;;;;11.35;4.95;;;9.10;99.90;;;;;;5003843;28;20068;-72
2023/02/20 09:34:04;;;;;;;12.93;7.07;;;9.20;99.90;;;;;;5029564;28;20041;-71
2023/02/20 09:36:30;;;;;;;11.10;6.82;;;9.10;99.90;;;;;;5023766;28;20051;-72
2023/02/20 09:38:56;;;;;;;16.35;7.40;;;9.00;99.90;;;;;;5009616;28;20607;-74
2023/02/20 09:41:37;;;;;;;12.75;7.40;;;9.10;99.90;;;;;;5020656;28;20049;-72
2023/02/20 09:44:40;;;;;;;15.43;7.95;;;9.00;99.90;;;;;;4975170;28;20421;-73
2023/02/20 09:47:27;;;;;;;15.80;7.00;;;9.00;99.90;;;;;;5011793;28;20041;-74
2023/02/20 09:49:56;;;;;;;15.13;7.82;;;9.00;99.90;;;;;;5023022;28;20049;-75
2023/02/20 09:52:24;;;;;;;13.75;7.90;;;9.10;99.90;;;;;;5021007;28;20072;-74
2023/02/20 09:54:53;;;;;;;;;;;9.00;99.90;;;;;;5003425;28;20038;-74
2023/02/20 09:57:23;;;;;;;;;;;9.00;99.90;;;;;;4984777;28;19963;-74
2023/02/20 10:00:18;;;;;;;18.45;8.38;;;8.90;99.90;;;;;;5007360;28;20312;-73
2023/02/20 10:03:05;;;;;;;12.05;8.27;;;8.90;99.90;;;;;;5017831;28;20046;-74
2023/02/20 10:05:33;;;;;;;13.68;8.85;;;8.90;99.90;;;;;;5021428;28;20144;-74
2023/02/20 10:08:00;;;;;;;17.23;10.05;;;8.90;99.90;;;;;;5037969;28;20048;-74
2023/02/20 10:10:38;;;;;;;17.90;9.93;;;8.90;99.90;;;;;;5018819;28;20100;-73
2023/02/20 10:13:31;;;;;;;16.73;9.90;;;8.80;99.90;;;;;;4977317;28;20060;-74
2023/02/20 10:16:14;;;;;;;20.02;11.38;;;8.70;99.90;;;;;;5020093;28;20132;-73
2023/02/20 10:18:45;;;;;;;17.42;9.82;;;8.60;99.90;;;;;;5025546;28;20174;-71
2023/02/20 10:21:23;;;;;;;18.10;10.73;;;8.70;99.90;;;;;;5017888;28;20053;-74
2023/02/20 10:23:55;;;;;;;19.42;11.82;;;8.70;99.90;;;;;;5020533;28;20038;-71
2023/02/20 10:26:29;;;;;;;18.35;11.65;;;8.70;99.90;;;;;;5006361;28;20049;-71
2023/02/20 10:29:02;;;;;;;18.42;11.25;;;8.60;99.90;;;;;;5019123;28;20053;-72
2023/02/20 10:31:58;;;;;;;20.08;12.63;;;8.60;99.90;;;;;;5002773;28;20077;-72
2023/02/20 10:35:03;;;;;;;23.10;12.43;;;8.60;99.90;;;;;;5022876;28;20045;-73
2023/02/20 10:37:36;;;;;;;18.20;12.60;;;8.60;99.90;;;;;;5006651;28;20042;-71
2023/02/20 10:40:17;;;;;;;21.35;13.57;;;8.50;99.90;;;;;;5012409;28;20478;-73
2023/02/20 10:43:06;;;;;;;22.20;13.50;;;8.60;99.90;;;;;;5008521;28;20046;-73
2023/02/20 10:45:44;;;;;;;20.23;12.57;;;8.60;99.90;;;;;;5022099;28;20045;-73
2023/02/20 10:48:14;;;;;;;20.73;13.40;;;8.60;99.90;;;;;;5002295;28;20074;-73
2023/02/20 10:50:45;;;;;;;19.88;13.45;;;8.70;99.90;;;;;;5004241;28;20061;-74
2023/02/20 10:53:18;;;;;;;20.45;13.50;;;8.70;99.90;;;;;;5038327;28;20156;-74
2023/02/20 10:56:00;;;;;;;21.67;14.20;;;8.70;99.90;;;;;;5023395;28;20498;-73
2023/02/20 10:58:50;;;;;;;22.33;14.27;;;8.70;99.90;;;;;;5008859;28;20088;-74
2023/02/20 11:01:19;;;;;;;20.88;13.50;;;8.70;99.90;;;;;;5033335;28;20045;-73
2023/02/20 11:03:53;;;;;;;23.10;14.23;;;8.70;99.90;;;;;;5026907;28;20735;-73
2023/02/20 11:06:20;;;;;;;24.48;14.95;;;8.60;99.90;;;;;;4994964;28;20046;-75
2023/02/20 11:08:47;;;;;;;23.40;13.57;;;8.60;99.90;;;;;;5001030;28;20046;-73
2023/02/20 11:11:22;;;;;;;23.88;15.82;;;8.60;99.90;;;;;;5020607;28;20049;-74
2023/02/20 11:13:49;;;;;;;25.65;16.35;;;8.60;99.90;;;;;;5024172;28;20045;-73
2023/02/20 11:16:28;;;;;;;26.13;16.25;;;8.60;99.90;;;;;;5008310;28;20046;-72
2023/02/20 11:19:08;;;;;;;22.88;16.10;;;8.60;99.90;;;;;;5024943;28;20175;-74
2023/02/20 11:21:40;;;;;;;24.25;15.73;;;8.60;99.90;;;;;;5014571;28;20053;-74
2023/02/20 11:24:29;;;;;;;24.83;16.48;;;8.50;99.90;;;;;;4979977;28;20375;-76
2023/02/20 11:27:14;;;;;;;27.33;17.98;;;8.60;99.90;;;;;;5002647;28;20140;-74
2023/02/20 11:30:02;;;;;;;31.27;18.70;;;8.50;99.90;;;;;;5012533;28;20046;-73
2023/02/20 11:32:33;;;;;;;29.17;18.35;;;8.60;99.90;;;;;;5030402;28;20480;-73
2023/02/20 11:35:03;;;;;;;26.98;18.92;;;8.60;99.90;;;;;;5018504;28;20053;-73
2023/02/20 11:37:29;;;;;;;30.88;19.02;;;8.50;99.90;;;;;;5021988;28;20045;-74
2023/02/20 11:39:55;;;;;;;29.67;19.15;;;8.50;99.90;;;;;;5008546;28;20045;-74
2023/02/20 11:42:21;;;;;;;30.00;19.52;;;8.50;99.90;;;;;;5020065;28;20188;-73
2023/02/20 11:45:11;;;;;;;26.58;18.50;;;8.50;99.90;;;;;;5021677;28;20121;-73
2023/02/20 11:47:37;;;;;;;29.88;19.40;;;8.50;99.90;;;;;;5000566;28;20050;-73
2023/02/20 11:50:17;;;;;;;28.50;17.92;;;8.50;99.90;;;;;;4995861;28;20099;-74
2023/02/20 11:53:04;;;;;;;30.00;19.10;;;8.50;99.90;;;;;;5008175;28;20062;-74
2023/02/20 11:55:29;;;;;;;28.80;18.42;;;8.40;99.90;;;;;;4986697;28;20045;-73
2023/02/20 11:57:55;;;;;;;28.58;18.80;;;8.40;99.90;;;;;;5007107;28;20045;-72
2023/02/20 12:00:51;;;;;;;31.38;18.52;;;8.40;99.90;;;;;;5045924;28;20085;-73
2023/02/20 12:03:35;;;;;;;28.73;18.48;;;8.40;99.90;;;;;;5009890;28;20045;-72
2023/02/20 12:06:22;;;;;;;29.88;19.65;;;8.50;99.90;;;;;;5023495;28;20615;-72
2023/02/20 12:08:55;;;;;;;29.88;18.88;;;8.40;99.90;;;;;;5016856;28;20046;-72
2023/02/20 12:11:26;;;;;;;30.02;19.90;;;8.40;99.90;;;;;;5001618;28;20811;-72
2023/02/20 12:13:55;;;;;;;29.63;19.02;;;8.40;99.90;;;;;;4996318;28;20080;-72
2023/02/20 12:16:44;;;;;;;35.95;21.00;;;8.40;99.90;;;;;;4999394;28;20879;-72
2023/02/20 12:19:36;;;;;;;38.15;21.88;;;8.40;99.90;;;;;;5029425;28;20076;-71
2023/02/20 12:22:33;;;;;;;32.00;20.70;;;8.30;99.90;;;;;;5008715;28;20767;-72
2023/02/20 12:25:11;;;;;;;35.63;22.25;;;8.30;99.90;;;;;;5018440;28;20042;-71
2023/02/20 12:27:41;;;;;;;35.95;21.10;;;8.30;99.90;;;;;;5049305;28;20065;-72
2023/02/20 12:30:25;;;;;;;36.65;22.25;;;8.30;99.90;;;;;;5018692;28;20053;-73
2023/02/20 12:33:18;;;;;;;37.17;23.13;;;8.20;99.90;;;;;;5017249;28;20185;-72
2023/02/20 12:36:06;;;;;;;39.60;23.17;;;8.30;99.90;;;;;;5022207;28;20124;-75
2023/02/20 12:38:48;;;;;;;;;;;8.20;99.90;;;;;;5020678;28;20042;-73
2023/02/20 12:41:38;;;;;;;43.05;22.60;;;8.20;99.90;;;;;;5029657;28;19917;-74
2023/02/20 12:44:28;;;;;;;39.08;22.45;;;8.20;99.90;;;;;;5040374;28;20045;-75
2023/02/20 12:47:10;;;;;;;39.15;23.50;;;8.10;99.90;;;;;;5022847;28;20084;-73
2023/02/20 12:49:41;;;;;;;43.47;23.75;;;8.10;99.90;;;;;;5028076;28;20068;-75
2023/02/20 12:52:37;;;;;;;40.83;22.92;;;8.30;99.90;;;;;;5018828;28;20053;-74
2023/02/20 12:55:23;;;;;;;39.67;23.17;;;8.20;99.90;;;;;;5019632;28;20041;-74
2023/02/20 12:58:17;;;;;;;40.15;23.73;;;8.20;99.90;;;;;;5008960;28;20136;-73
2023/02/20 13:00:47;;;;;;;45.13;23.20;;;8.10;99.90;;;;;;5042088;28;20041;-74
2023/02/20 13:03:34;;;;;;;36.50;22.45;;;8.10;99.90;;;;;;4998994;28;20083;-72
2023/02/20 13:05:59;;;;;;;39.70;22.92;;;8.10;99.90;;;;;;5005930;28;20081;-74
2023/02/20 13:08:39;;;;;;;37.53;22.10;;;8.10;99.90;;;;;;5000538;28;20145;-74
2023/02/20 13:11:15;;;;;;;43.85;26.85;;;8.00;99.90;;;;;;5014974;28;20069;-74
2023/02/20 13:13:44;;;;;;;46.40;24.50;;;8.00;99.90;;;;;;5006728;28;20049;-75
2023/02/20 13:16:12;;;;;;;;;;;8.00;99.90;;;;;;5009390;28;20041;-75